aviador You're here:

KOGB Decoded Metar

ORANGEBURG in SC, USA
Report Time2017-12-16 10:53:00
UTC Time2017-12-16 10:59:14
Flight Rules vfr VFR
Wind340° at 03 kt
W.Decomp.*RWY 35: 3.0 kt HW 0.2 kt LCW
RWY 05: 1.4 kt HW 2.7 kt LCW
W.Rank340° ranks 32
Current wind is below 340° avg. (5.8)
Visibility9999 m
Phenomena:N/A
Clouds:N/A
Expected CloudBase > 1,600 ft AGL from Temp-Dew spread
CeilingNone
Temp00°C (ISA -15)
Dew Point-4°C (75% RH)
AAT-3.6°C
QNH1024 hPa
Density Alt-1,903 ft
Elevation194 ft
Report Wrong Elevation
Raw Report
METAR KOGB 161053Z AUTO 34003KT 10SM CLR 00/M04 A3024 RMK AO2 SLP242
T00001039=

Extra information for KOGB:More info

Metar Taf Metar & Taf Last 4 Metars F.Rules Stats Wind Profile Meteogram Temp Stats Airport Information Weather charts Add Link Nearby VenuesMetar ALERT Operation Metar Decoded Social comments

AIRNAV info for KOGB